Language selection

My Weather Profile Weather Topics  | 

Juan de Fuca Strait - west entrance: Past 24 Hour Conditions

 

Georgia Strait - 46303

03:00 AM PDT 17 October 2021Buoy position: 49.03N 123.43W
Disclaimer

This table is a summary of hourly weather conditions for the past 24 hours.
Please note that these observations might not always be representative of weather conditions over their associated marine area.

Date / Time
(PDT)
Wind(knots) Wave height(m) Wave period(s) Pressure(kPa) Air tempC) Water tempC)
17 October 2021
3:00 E 3 gust 3 0.1 2.9 100.7 11 11
2:00 E 6 gust 7 0.2 3.0 100.7 11 11
1:00 E 8 gust 9 0.2 2.9 100.7 11 11
0:00 ESE 5 gust 6 0.2 3.0 100.8 11 11
16 October 2021
23:00 NE 10 gust 11 0.2 3.4 100.8 11 11
22:00 NNE 3 gust 6 0.3 3.6 100.9 11 11
21:00 NNW 4 gust 5 0.3 3.5 100.9 11 11
20:00 NNW 6 gust 7 0.3 3.7 100.9 11 11
19:00 NW 8 gust 9 0.5 3.6 100.9 11 11
18:00 NW 11 gust 18 N/A N/A 100.9 12 11
17:00 SE 10 gust 13 0.7 3.3 100.9 14 11
16:00 E 18 gust 21 0.8 3.5 100.8 14 11
15:00 E 16 gust 18 0.8 3.6 100.9 14 11
14:00 E 16 gust 18 0.8 3.8 101.0 13 11
13:00 E 13 gust 15 0.8 3.8 101.1 13 11
12:00 E 14 gust 17 0.8 3.8 101.1 12 11
11:00 E 17 gust 19 1.0 4.1 101.2 12 11
10:00 E 15 gust 18 1.0 4.1 101.2 12 11
9:00 E 18 gust 22 1.0 4.2 101.2 12 11
8:00 E 20 gust 24 0.9 4.0 101.2 12 11
7:00 E 18 gust 22 0.7 3.7 101.2 12 11
6:00 E 18 gust 22 0.8 3.8 101.3 12 11
5:00 ENE 16 gust 19 0.7 3.5 101.4 12 11
4:00 ENE 15 gust 18 0.7 3.5 101.4 12 11
3:00 ENE 17 gust 21 0.7 3.6 101.5 12 11

Zoom-in to make a selection

Map of Pacific - Georgia Basin marine weather areas Sentry Shoal - 46131 Halibut Bank - 46146 La Perouse Bank - 46206 Georgia Strait - 46303 English Bay - 46304 Discovery Island Esquimalt Harbour Kelp Reefs Malahat Race Rocks Lightstation Saturna Island Sheringham Point University of Victoria Victoria Gonzales Victoria Int'l Airport Ballenas Islands Campbell River Airport Comox Airport Entrance Island Fanny Island Nanaimo Airport Sisters Islets Estevan Point Port Alberni Tofino Airport Grief Point Howe Sound - Pam Rocks Powell River Airport Sechelt Squamish Airport Point Atkinson Sand Heads Lightstation Tsawwassen Ferry Terminal Vancouver Int'l Airport Vancouver Harbour West Vancouver
Legend:
buoy Buoy
land station Land Station

Pacific - Georgia Basin Area

Another Region

What we are doing

Date modified: